Latest Weather Observations for Westmere

IDV60801

Issued at 9:02 pm EDT Sunday 14 February 2016 (issued every 30 minutes, with the page automatically refreshed every 10 minutes)

About weather observations | Map of weather stations | Latest weather observations for VIC | Other Formats
Station Details ID: 089112 Name: WESTMERE Lat: -37.71 Lon: 142.94 Height: 226.0 m
Data from the previous 72 hours. | See also: Recent months at Westmere
Date/Time
EDT
Temp
°C
App
Temp
°C
Dew
Point
Rel
Hum
%
Delta-T
°C
Wind Press
QNH
hPa
Press
MSL
hPa
Rain
since 9 am
mm
Dir
 
Spd
km/h
Gust
km/h
Spd
kts
Gust
kts
14/09:00pm 15.3 12.4 10.9 75 2.4 SSW 17 22 9 12 1014.4 1013.7 0.0
14/08:30pm 16.6 11.8 11.5 72 2.8 SSW 28 33 15 18 1013.9 1013.1 0.0
14/08:00pm 18.4 14.1 9.5 56 4.7 SW 22 30 12 16 1013.4 1012.6 0.0
14/07:30pm 19.0 14.2 8.9 52 5.3 SW 24 33 13 18 1013.1 1012.3 0.0
14/07:00pm 19.1 13.3 9.6 54 5.1 SW 30 39 16 21 1013.0 1012.2 0.0
14/06:30pm 20.7 15.2 9.3 48 6.1 WSW 28 41 15 22 1012.7 1011.9 0.0
14/06:00pm 21.6 16.1 9.2 45 6.7 SW 28 37 15 20 1012.3 1011.6 0.0
14/05:30pm 21.8 15.4 8.7 43 7.0 SW 32 44 17 24 1012.0 1011.3 0.0
14/05:00pm 23.5 18.7 5.4 31 9.2 WSW 20 30 11 16 1011.6 1010.9 0.0
14/04:30pm 22.1 18.1 6.7 37 8.0 WSW 17 24 9 13 1011.9 1011.2 0.0
14/04:00pm 23.1 17.8 6.8 35 8.5 SW 24 33 13 18 1012.0 1011.3 0.0
14/03:30pm 23.0 18.5 7.1 36 8.3 WSW 20 32 11 17 1012.2 1011.5 0.0
14/03:00pm 23.1 18.6 6.8 35 8.5 WSW 20 32 11 17 1012.5 1011.7 0.0
14/02:30pm 20.8 17.0 9.7 49 6.0 WSW 20 28 11 15 1013.0 1012.2 0.0
14/02:00pm 19.8 16.4 9.1 50 5.7 WSW 17 26 9 14 1013.1 1012.3 0.0
14/01:30pm 19.6 16.2 10.6 56 4.9 SW 19 26 10 14 1013.4 1012.6 0.0
14/01:00pm 17.7 13.0 10.8 64 3.8 W 26 35 14 19 1013.5 1012.7 0.0
14/12:30pm 19.4 14.2 9.0 51 5.5 W 26 39 14 21 1013.1 1012.3 0.0
14/12:00pm 20.7 16.2 8.7 46 6.4 W 22 32 12 17 1013.1 1012.3 0.0
14/11:30am 20.4 16.4 9.0 48 6.1 W 20 30 11 16 1013.1 1012.3 0.0
14/11:00am 18.8 14.9 9.3 54 5.1 W 20 32 11 17 1013.2 1012.4 0.0
14/10:30am 18.6 14.5 8.6 52 5.2 WSW 20 35 11 19 1013.3 1012.5 0.0
14/10:00am 18.6 14.7 9.4 55 4.9 WSW 20 32 11 17 1013.1 1012.3 0.0
14/09:30am 17.4 14.7 10.5 64 3.7 W 15 26 8 14 1013.1 1012.3 0.0
14/09:00am 16.1 14.0 11.1 72 2.7 WNW 13 19 7 10 1012.9 1012.1 0.0
14/08:30am 14.7 12.5 10.9 78 2.0 WNW 13 20 7 11 1012.8 1012.0 0.0
14/08:00am 13.4 11.6 10.8 84 1.4 W 11 19 6 10 1012.5 1011.7 0.0
14/07:30am 11.4 10.1 10.1 92 0.7 WNW 7 9 4 5 1012.1 1011.4 0.0
14/07:00am 12.1 10.5 10.2 88 1.0 WNW 9 13 5 7 1011.7 1011.0 0.0
14/06:30am 12.3 10.8 10.4 88 1.0 WNW 9 13 5 7 1011.2 1010.5 0.0
14/06:00am 12.9 10.6 10.6 86 1.2 W 13 17 7 9 1010.8 1010.1 0.0
14/05:30am 13.2 11.0 10.7 85 1.3 W 13 19 7 10 1010.6 1009.9 0.0
14/05:00am 13.1 10.8 10.5 84 1.4 W 13 20 7 11 1010.3 1009.6 0.0
14/04:30am 12.4 10.8 10.1 86 1.2 WNW 9 13 5 7 1010.4 1009.7 0.0
14/04:00am 12.8 11.7 10.5 86 1.2 WNW 7 11 4 6 1010.5 1009.8 0.0
14/03:30am 12.8 11.3 10.5 86 1.2 WNW 9 13 5 7 1010.5 1009.8 0.0
14/03:00am 13.2 11.8 10.9 86 1.2 W 9 15 5 8 1010.4 1009.7 0.0
14/02:30am 13.6 12.2 10.8 83 1.5 WNW 9 13 5 7 1010.6 1009.9 0.0
14/02:00am 13.6 12.6 11.1 85 1.3 WNW 7 11 4 6 1010.7 1010.0 0.0
14/01:30am 14.4 13.5 11.4 82 1.6 W 7 11 4 6 1011.1 1010.4 0.0
14/01:00am 14.9 13.7 11.5 80 1.8 WSW 9 13 5 7 1011.3 1010.6 0.0
14/12:30am 15.4 13.5 11.8 79 2.0 WSW 13 17 7 9 1011.6 1010.9 0.0
14/12:00am 15.5 13.4 12.3 81 1.8 WSW 15 22 8 12 1011.8 1011.1 0.0
 
Date/Time
EDT
Temp
°C
App
Temp
°C
Dew
Point
Rel
Hum
%
Delta-T
°C
Wind Press
QNH
hPa
Press
MSL
hPa
Rain
since 9 am
mm
Dir
 
Spd
km/h
Gust
km/h
Spd
kts
Gust
kts
13/11:30pm 16.0 13.6 12.7 81 1.8 SW 17 22 9 12 1011.9 1011.2 0.0
13/11:00pm 16.8 14.0 13.1 79 2.1 SW 20 28 11 15 1012.0 1011.3 0.0
13/10:30pm 17.0 13.0 12.9 77 2.3 SW 26 35 14 19 1012.0 1011.3 0.0
13/10:00pm 17.4 13.9 13.5 78 2.2 SW 24 32 13 17 1011.6 1010.9 0.0
13/09:30pm 17.5 13.8 14.0 80 2.0 SW 26 39 14 21 1011.1 1010.4 0.0
13/09:00pm 17.9 13.5 14.2 79 2.1 SW 30 43 16 23 1010.6 1009.9 0.0
13/08:30pm 19.2 15.0 13.4 69 3.3 SSW 28 37 15 20 1009.9 1009.1 0.0
13/08:00pm 20.5 17.0 14.4 68 3.6 SSW 26 37 14 20 1009.4 1008.6 0.0
13/07:30pm 21.4 16.7 14.8 66 3.9 SSW 33 41 18 22 1008.9 1008.1 0.0
13/07:00pm 24.4 20.1 14.5 54 5.9 SSW 30 39 16 21 1008.2 1007.4 0.0
13/06:30pm 26.8 22.6 13.5 44 7.9 SSW 28 35 15 19 1007.6 1006.9 0.0
13/06:00pm 28.5 24.7 12.4 37 9.5 SSW 24 33 13 18 1007.4 1006.7 0.0
13/05:30pm 28.5 25.8 11.6 35 9.8 SSW 17 26 9 14 1007.3 1006.6 0.0
13/05:00pm 29.9 26.2 9.4 28 11.6 WSW 19 32 10 17 1007.4 1006.7 0.0
13/04:30pm 30.1 25.6 8.5 26 12.0 WSW 22 35 12 19 1007.3 1006.6 0.0
13/04:00pm 30.8 25.8 7.9 24 12.7 WSW 24 33 13 18 1007.3 1006.6 0.0
13/03:30pm 31.2 25.6 5.6 20 13.7 WSW 24 37 13 20 1007.5 1006.8 0.0
13/03:00pm 31.7 25.5 4.5 18 14.3 WNW 26 39 14 21 1007.7 1007.0 0.0
13/02:30pm 31.7 25.9 4.5 18 14.3 W 24 37 13 20 1007.7 1007.0 0.0
13/02:00pm 31.9 24.8 3.8 17 14.7 WNW 30 44 16 24 1008.0 1007.2 0.0
13/01:44pm 31.8 24.6 2.9 16 14.8 WNW 30 48 16 26 1008.1 1007.3 0.0
13/01:30pm 31.1 24.7 3.2 17 14.3 WNW 26 39 14 21 1008.3 1007.5 0.0
13/01:00pm 29.4 24.4 3.4 19 13.3 WNW 19 30 10 16 1008.8 1008.0 0.0
13/12:30pm 28.6 23.7 4.2 21 12.5 W 19 30 10 16 1009.3 1008.5 0.0
13/12:00pm 27.4 23.5 3.2 21 12.2 W 13 24 7 13 1009.6 1008.8 0.0
13/11:30am 27.4 22.8 3.8 22 12.0 WNW 17 28 9 15 1009.8 1009.0 0.0
13/11:00am 26.1 22.8 4.6 25 11.0 WNW 11 19 6 10 1009.9 1009.1 0.0
13/10:30am 25.2 22.7 6.4 30 9.8 WSW 9 15 5 8 1010.1 1009.3 0.0
13/10:00am 24.3 21.9 7.0 33 9.1 W 9 15 5 8 1010.2 1009.5 0.0
13/09:30am 20.8 20.3 12.2 58 4.9 W 6 7 3 4 1010.0 1009.2 0.0
13/09:00am 18.5 18.3 12.9 70 3.2 SW 6 7 3 4 1010.0 1009.2 0.0
13/08:30am 18.4 18.0 12.4 68 3.4 NNW 6 9 3 5 1010.0 1009.2 0.0
13/08:00am 15.3 16.2 12.8 85 1.4 CALM 0 0 0 0 1009.9 1009.1 0.0
13/07:30am 13.1 13.5 11.3 89 1.0 CALM 0 0 0 0 1009.7 1008.9 0.0
13/07:00am 13.2 12.4 10.9 86 1.2 NNE 6 6 3 3 1009.8 1009.0 0.0
13/06:30am 13.1 13.1 11.3 89 1.0 NNE 2 6 1 3 1009.2 1008.4 0.0
13/06:00am 12.5 12.7 10.7 89 0.9 CALM 0 0 0 0 1008.9 1008.1 0.0
13/05:30am 12.4 12.5 10.3 87 1.1 CALM 0 0 0 0 1009.1 1008.3 0.0
13/05:00am 12.6 12.8 10.5 87 1.1 CALM 0 2 0 1 1009.2 1008.4 0.0
13/04:30am 12.1 11.1 10.2 88 1.0 N 6 9 3 5 1009.1 1008.3 0.0
13/04:00am 12.8 12.7 10.7 87 1.1 N 2 4 1 2 1009.6 1008.8 0.0
13/03:30am 13.5 13.2 11.4 87 1.1 N 4 6 2 3 1009.6 1008.8 0.0
13/03:00am 12.9 12.0 10.8 87 1.1 N 6 6 3 3 1009.6 1008.8 0.0
13/02:30am 13.1 12.1 11.0 87 1.1 N 7 9 4 5 1009.9 1009.1 0.0
13/02:00am 13.5 12.7 11.0 85 1.3 NNW 6 7 3 4 1010.4 1009.7 0.0
13/01:30am 14.0 13.3 11.5 85 1.3 NNW 6 6 3 3 1010.5 1009.8 0.0
13/01:00am 14.6 14.3 11.4 81 1.7 W 4 6 2 3 1010.6 1009.9 0.0
13/12:30am 15.6 15.1 12.0 79 2.0 W 6 7 3 4 1011.0 1010.3 0.0
13/12:00am 17.2 16.3 12.7 75 2.5 WSW 9 15 5 8 1011.4 1010.7 0.0
 
Date/Time
EDT
Temp
°C
App
Temp
°C
Dew
Point
Rel
Hum
%
Delta-T
°C
Wind Press
QNH
hPa
Press
MSL
hPa
Rain
since 9 am
mm
Dir
 
Spd
km/h
Gust
km/h
Spd
kts
Gust
kts
12/11:30pm 17.3 15.8 12.0 71 2.9 WSW 11 15 6 8 1011.4 1010.7 0.0
12/11:00pm 18.2 16.8 12.2 68 3.4 SW 11 13 6 7 1011.6 1010.9 0.0
12/10:30pm 19.3 18.2 12.1 63 4.0 SW 9 13 5 7 1011.6 1010.9 0.0
12/10:00pm 20.6 19.2 12.3 59 4.7 SW 11 15 6 8 1011.6 1010.9 0.0
12/09:30pm 21.0 19.8 11.6 55 5.3 SSW 9 11 5 6 1011.6 1010.9 0.0
12/09:00pm 23.0 21.4 11.4 48 6.6 S 11 15 6 8 1011.3 1010.6 0.0
12/08:30pm 25.4 22.4 10.8 40 8.3 S 17 24 9 13 1011.2 1010.5 0.0
12/08:00pm 29.2 25.1 4.6 21 12.8 WNW 15 19 8 10 1010.9 1010.2 0.0
12/07:30pm 30.4 25.7 3.4 18 13.8 NW 17 22 9 12 1010.8 1010.1 0.0
12/07:00pm 30.6 27.0 2.8 17 14.1 NW 11 19 6 10 1010.7 1010.0 0.0
12/06:30pm 31.4 26.8 1.7 15 14.9 WNW 15 22 8 12 1010.9 1010.2 0.0
12/06:00pm 31.1 27.2 3.2 17 14.3 NW 13 26 7 14 1011.0 1010.3 0.0
12/05:30pm 30.9 28.0 4.6 19 13.8 WNW 9 24 5 13 1011.3 1010.6 0.0
12/05:00pm 31.3 28.4 6.4 21 13.5 WSW 11 22 6 12 1011.6 1010.9 0.0
12/04:30pm 30.2 27.8 6.8 23 12.7 WSW 9 19 5 10 1011.9 1011.2 0.0
12/04:00pm 29.9 26.5 5.9 22 12.8 NW 13 26 7 14 1012.3 1011.6 0.0
12/03:30pm 29.5 27.4 6.8 24 12.3 SW 7 19 4 10 1012.8 1012.0 0.0
12/03:00pm 29.1 26.6 6.5 24 12.1 NNW 9 20 5 11 1013.2 1012.4 0.0
12/02:30pm 28.2 25.4 5.1 23 12.0 NW 9 20 5 11 1013.7 1012.9 0.0
12/02:00pm 28.3 26.8 7.0 26 11.5 NE 4 9 2 5 1013.9 1013.1 0.0
12/01:30pm 27.2 25.7 8.6 31 10.2 E 6 9 3 5 1014.2 1013.5 0.0
12/01:00pm 26.4 24.8 7.9 31 10.0 NNE 6 11 3 6 1014.8 1014.1 0.0
12/12:30pm 25.4 23.9 9.3 36 8.9 SSE 7 15 4 8 1015.1 1014.4 0.0
12/12:00pm 24.4 22.8 10.3 41 7.9 E 9 15 5 8 1015.5 1014.8 0.0
12/11:30am 23.3 21.9 11.0 46 6.9 ESE 9 15 5 8 1015.6 1014.9 0.0
12/11:00am 23.0 21.5 12.0 50 6.3 ESE 11 20 6 11 1015.8 1015.1 0.0
12/10:30am 21.0 19.6 12.2 57 5.0 ESE 11 19 6 10 1016.0 1015.3 0.0
12/10:00am 19.5 17.8 12.3 63 4.1 E 13 17 7 9 1016.3 1015.6 0.0
12/09:30am 18.2 15.4 12.6 70 3.2 ESE 19 24 10 13 1016.6 1015.9 0.0
12/09:00am 17.1 14.6 12.4 74 2.6 E 17 24 9 13 1016.6 1015.9 0.0
12/08:30am 16.0 15.1 12.6 80 1.9 ESE 9 15 5 8 1016.6 1015.9 0.0
12/08:00am 14.7 15.3 11.8 83 1.6 CALM 0 0 0 0 1016.6 1015.9 0.0
12/07:30am 11.8 12.0 10.7 93 0.6 CALM 0 0 0 0 1016.5 1015.8 0.0
12/07:00am 11.4 11.5 10.3 93 0.6 CALM 0 0 0 0 1016.6 1015.9 0.0
12/06:30am 11.2 10.4 9.8 91 0.7 SSE 4 4 2 2 1016.5 1015.8 0.0
12/06:00am 11.5 10.4 9.8 89 0.9 SSE 6 7 3 4 1016.4 1015.7 0.0
12/05:30am 13.0 11.9 10.7 86 1.2 SSE 7 11 4 6 1016.4 1015.7 0.0
12/05:00am 13.9 12.6 11.4 85 1.3 SSE 9 11 5 6 1016.2 1015.5 0.0
12/04:30am 13.5 12.2 11.2 86 1.2 SSE 9 11 5 6 1016.3 1015.6 0.0
12/04:00am 12.9 11.8 10.8 87 1.1 SSE 7 11 4 6 1016.4 1015.7 0.0
12/03:30am 12.2 10.7 10.4 89 0.9 S 9 9 5 5 1016.8 1016.1 0.0
12/03:00am 11.5 10.3 9.6 88 1.0 S 6 6 3 3 1017.0 1016.3 0.0
12/02:30am 11.6 10.7 9.2 85 1.2 S 4 6 2 3 1017.3 1016.5 0.0
12/02:00am 12.3 10.9 9.7 84 1.3 S 7 9 4 5 1017.4 1016.6 0.0
12/01:30am 13.2 12.2 10.4 83 1.5 S 6 9 3 5 1017.8 1017.0 0.0
12/01:00am 13.3 12.0 10.1 81 1.7 S 7 7 4 4 1017.6 1016.8 0.0
12/12:30am 14.1 13.2 10.5 79 1.9 SSE 6 6 3 3 1017.9 1017.2 0.0
12/12:00am 14.6 13.4 10.4 76 2.2 SE 7 9 4 5 1018.0 1017.3 0.0
 
Date/Time
EDT
Temp
°C
App
Temp
°C
Dew
Point
Rel
Hum
%
Delta-T
°C
Wind Press
QNH
hPa
Press
MSL
hPa
Rain
since 9 am
mm
Dir
 
Spd
km/h
Gust
km/h
Spd
kts
Gust
kts
11/11:30pm 15.4 14.3 10.8 74 2.5 SE 7 11 4 6 1018.2 1017.5 0.0
11/11:00pm 16.0 13.4 10.7 71 2.8 S 15 19 8 10 1018.3 1017.6 0.0
11/10:30pm 16.6 13.4 11.1 70 3.0 S 19 24 10 13 1018.2 1017.5 0.0
11/10:00pm 17.1 13.3 11.2 68 3.2 S 22 30 12 16 1017.8 1017.0 0.0
11/09:30pm 17.6 13.4 11.2 66 3.5 S 24 32 13 17 1017.6 1016.8 0.0

Other Formats:

Comma delimited format used in spreadsheet applications
http://www.bom.gov.au/fwo/IDV60801/IDV60801.95840.axf

JavaScript Object Notation format (JSON) in row-major order
http://www.bom.gov.au/fwo/IDV60801/IDV60801.95840.json